sensor_id;sensor_type;location;lat;lon;timestamp;temperature;humidity
18153;DHT22;9202;51.578;7.734;2023-07-22T00:01:31;13.80;99.90
18153;DHT22;9202;51.578;7.734;2023-07-22T00:03:34;13.80;99.90
18153;DHT22;9202;51.578;7.734;2023-07-22T00:05:37;13.80;99.90
18153;DHT22;9202;51.578;7.734;2023-07-22T00:07:39;13.80;99.90
18153;DHT22;9202;51.578;7.734;2023-07-22T00:09:42;13.80;99.90
18153;DHT22;9202;51.578;7.734;2023-07-22T00:11:45;13.80;99.90
18153;DHT22;9202;51.578;7.734;2023-07-22T00:13:48;13.80;99.90
18153;DHT22;9202;51.578;7.734;2023-07-22T00:15:50;13.70;99.90
18153;DHT22;9202;51.578;7.734;2023-07-22T00:17:54;13.70;99.90
18153;DHT22;9202;51.578;7.734;2023-07-22T00:19:58;13.60;99.90
18153;DHT22;9202;51.578;7.734;2023-07-22T00:22:02;13.70;99.90
18153;DHT22;9202;51.578;7.734;2023-07-22T00:24:04;13.70;99.90
18153;DHT22;9202;51.578;7.734;2023-07-22T00:26:07;13.70;99.90
18153;DHT22;9202;51.578;7.734;2023-07-22T00:28:11;13.70;99.90
18153;DHT22;9202;51.578;7.734;2023-07-22T00:30:14;13.70;99.90
18153;DHT22;9202;51.578;7.734;2023-07-22T00:32:16;13.60;99.90
18153;DHT22;9202;51.578;7.734;2023-07-22T00:34:19;13.50;99.90
18153;DHT22;9202;51.578;7.734;2023-07-22T00:36:22;13.40;99.90
18153;DHT22;9202;51.578;7.734;2023-07-22T00:38:25;13.40;99.90
18153;DHT22;9202;51.578;7.734;2023-07-22T00:40:30;13.40;99.90
18153;DHT22;9202;51.578;7.734;2023-07-22T00:42:34;13.30;99.90
18153;DHT22;9202;51.578;7.734;2023-07-22T00:44:36;13.20;99.90
18153;DHT22;9202;51.578;7.734;2023-07-22T00:46:39;13.10;99.90
18153;DHT22;9202;51.578;7.734;2023-07-22T00:48:42;13.20;99.90
18153;DHT22;9202;51.578;7.734;2023-07-22T00:50:45;13.10;99.90
18153;DHT22;9202;51.578;7.734;2023-07-22T00:52:47;13.10;99.90
18153;DHT22;9202;51.578;7.734;2023-07-22T00:54:50;13.10;99.90
18153;DHT22;9202;51.578;7.734;2023-07-22T00:56:53;13.20;99.90
18153;DHT22;9202;51.578;7.734;2023-07-22T00:58:56;13.10;99.90
18153;DHT22;9202;51.578;7.734;2023-07-22T01:00:59;13.10;99.90
18153;DHT22;9202;51.578;7.734;2023-07-22T01:03:02;13.10;99.90
18153;DHT22;9202;51.578;7.734;2023-07-22T01:05:06;13.10;99.90
18153;DHT22;9202;51.578;7.734;2023-07-22T01:07:08;13.10;99.90
18153;DHT22;9202;51.578;7.734;2023-07-22T01:09:12;13.10;99.90
18153;DHT22;9202;51.578;7.734;2023-07-22T01:11:15;13.00;99.90
18153;DHT22;9202;51.578;7.734;2023-07-22T01:13:18;12.90;99.90
18153;DHT22;9202;51.578;7.734;2023-07-22T01:15:22;12.90;99.90
18153;DHT22;9202;51.578;7.734;2023-07-22T01:17:25;12.90;99.90
18153;DHT22;9202;51.578;7.734;2023-07-22T01:19:31;12.90;99.90
18153;DHT22;9202;51.578;7.734;2023-07-22T01:21:34;12.90;99.90
18153;DHT22;9202;51.578;7.734;2023-07-22T01:23:37;12.90;99.90
18153;DHT22;9202;51.578;7.734;2023-07-22T01:25:40;13.00;99.90
18153;DHT22;9202;51.578;7.734;2023-07-22T01:27:44;13.00;99.90
18153;DHT22;9202;51.578;7.734;2023-07-22T01:29:46;12.90;99.90
18153;DHT22;9202;51.578;7.734;2023-07-22T01:31:51;12.90;99.90
18153;DHT22;9202;51.578;7.734;2023-07-22T01:33:54;12.90;99.90
18153;DHT22;9202;51.578;7.734;2023-07-22T01:35:57;12.90;99.90
18153;DHT22;9202;51.578;7.734;2023-07-22T01:38:00;12.90;99.90
18153;DHT22;9202;51.578;7.734;2023-07-22T01:40:03;12.90;99.90
18153;DHT22;9202;51.578;7.734;2023-07-22T01:45:00;12.90;99.90
18153;DHT22;9202;51.578;7.734;2023-07-22T01:47:03;12.90;99.90
18153;DHT22;9202;51.578;7.734;2023-07-22T01:49:07;12.90;99.90
18153;DHT22;9202;51.578;7.734;2023-07-22T01:51:10;12.90;99.90
18153;DHT22;9202;51.578;7.734;2023-07-22T01:53:13;12.90;99.90
18153;DHT22;9202;51.578;7.734;2023-07-22T01:55:16;12.80;99.90
18153;DHT22;9202;51.578;7.734;2023-07-22T01:57:18;12.90;99.90
18153;DHT22;9202;51.578;7.734;2023-07-22T01:59:21;12.90;99.90
18153;DHT22;9202;51.578;7.734;2023-07-22T02:01:24;12.80;99.90
18153;DHT22;9202;51.578;7.734;2023-07-22T02:03:27;12.90;99.90
18153;DHT22;9202;51.578;7.734;2023-07-22T02:05:29;12.90;99.90
18153;DHT22;9202;51.578;7.734;2023-07-22T02:07:32;12.90;99.90
18153;DHT22;9202;51.578;7.734;2023-07-22T02:09:35;12.80;99.90
18153;DHT22;9202;51.578;7.734;2023-07-22T02:11:38;12.80;99.90
18153;DHT22;9202;51.578;7.734;2023-07-22T02:13:41;12.90;99.90
18153;DHT22;9202;51.578;7.734;2023-07-22T02:15:43;12.90;99.90
18153;DHT22;9202;51.578;7.734;2023-07-22T02:17:46;12.90;99.90
18153;DHT22;9202;51.578;7.734;2023-07-22T02:19:50;12.90;99.90
18153;DHT22;9202;51.578;7.734;2023-07-22T02:21:53;12.90;99.90
18153;DHT22;9202;51.578;7.734;2023-07-22T02:23:55;12.90;99.90
18153;DHT22;9202;51.578;7.734;2023-07-22T02:25:58;13.00;99.90
18153;DHT22;9202;51.578;7.734;2023-07-22T02:28:01;12.90;99.90
18153;DHT22;9202;51.578;7.734;2023-07-22T02:30:04;13.00;99.90
18153;DHT22;9202;51.578;7.734;2023-07-22T02:32:08;13.00;99.90
18153;DHT22;9202;51.578;7.734;2023-07-22T02:34:10;13.00;99.90
18153;DHT22;9202;51.578;7.734;2023-07-22T02:36:13;13.10;99.90
18153;DHT22;9202;51.578;7.734;2023-07-22T02:38:16;13.00;99.90
18153;DHT22;9202;51.578;7.734;2023-07-22T02:40:19;13.00;99.90
18153;DHT22;9202;51.578;7.734;2023-07-22T02:42:22;13.00;99.90
18153;DHT22;9202;51.578;7.734;2023-07-22T02:44:25;12.90;99.90
18153;DHT22;9202;51.578;7.734;2023-07-22T02:46:28;13.00;99.90
18153;DHT22;9202;51.578;7.734;2023-07-22T02:48:32;13.00;99.90
18153;DHT22;9202;51.578;7.734;2023-07-22T02:50:35;13.00;99.90
18153;DHT22;9202;51.578;7.734;2023-07-22T02:52:38;12.90;99.90
18153;DHT22;9202;51.578;7.734;2023-07-22T02:54:41;12.90;99.90
18153;DHT22;9202;51.578;7.734;2023-07-22T02:56:44;13.00;99.90
18153;DHT22;9202;51.578;7.734;2023-07-22T02:58:46;12.90;99.90
18153;DHT22;9202;51.578;7.734;2023-07-22T03:00:50;13.00;99.90
18153;DHT22;9202;51.578;7.734;2023-07-22T03:02:53;13.00;99.90
18153;DHT22;9202;51.578;7.734;2023-07-22T03:04:58;13.00;99.90
18153;DHT22;9202;51.578;7.734;2023-07-22T03:07:01;13.00;99.90
18153;DHT22;9202;51.578;7.734;2023-07-22T03:09:04;13.00;99.90
18153;DHT22;9202;51.578;7.734;2023-07-22T03:11:07;13.10;99.90
18153;DHT22;9202;51.578;7.734;2023-07-22T03:13:09;13.10;99.90
18153;DHT22;9202;51.578;7.734;2023-07-22T03:15:12;13.10;99.90
18153;DHT22;9202;51.578;7.734;2023-07-22T03:17:14;13.10;99.90
18153;DHT22;9202;51.578;7.734;2023-07-22T03:19:18;13.20;99.90
18153;DHT22;9202;51.578;7.734;2023-07-22T03:21:21;13.20;99.90
18153;DHT22;9202;51.578;7.734;2023-07-22T03:23:24;13.20;99.90
18153;DHT22;9202;51.578;7.734;2023-07-22T03:25:26;13.30;99.90
18153;DHT22;9202;51.578;7.734;2023-07-22T03:27:29;13.30;99.90
18153;DHT22;9202;51.578;7.734;2023-07-22T03:29:32;13.30;99.90
18153;DHT22;9202;51.578;7.734;2023-07-22T03:31:35;13.30;99.90
18153;DHT22;9202;51.578;7.734;2023-07-22T03:33:40;13.30;99.90
18153;DHT22;9202;51.578;7.734;2023-07-22T03:35:45;13.30;99.90
18153;DHT22;9202;51.578;7.734;2023-07-22T03:37:48;13.40;99.90
18153;DHT22;9202;51.578;7.734;2023-07-22T03:39:50;13.40;99.90
18153;DHT22;9202;51.578;7.734;2023-07-22T03:41:53;13.40;99.90
18153;DHT22;9202;51.578;7.734;2023-07-22T03:43:56;13.40;99.90
18153;DHT22;9202;51.578;7.734;2023-07-22T03:45:58;13.40;99.90
18153;DHT22;9202;51.578;7.734;2023-07-22T03:48:01;13.50;99.90
18153;DHT22;9202;51.578;7.734;2023-07-22T03:50:05;13.40;99.90
18153;DHT22;9202;51.578;7.734;2023-07-22T03:52:08;13.50;99.90
18153;DHT22;9202;51.578;7.734;2023-07-22T03:54:11;13.50;99.90
18153;DHT22;9202;51.578;7.734;2023-07-22T03:56:13;13.60;99.90
18153;DHT22;9202;51.578;7.734;2023-07-22T03:58:16;13.60;99.90
18153;DHT22;9202;51.578;7.734;2023-07-22T04:00:19;13.60;99.90
18153;DHT22;9202;51.578;7.734;2023-07-22T04:04:54;13.70;99.90
18153;DHT22;9202;51.578;7.734;2023-07-22T04:06:57;13.70;99.90
18153;DHT22;9202;51.578;7.734;2023-07-22T04:09:00;13.70;99.90
18153;DHT22;9202;51.578;7.734;2023-07-22T04:11:03;13.70;99.90
18153;DHT22;9202;51.578;7.734;2023-07-22T04:13:05;13.70;99.90
18153;DHT22;9202;51.578;7.734;2023-07-22T04:15:09;13.70;99.90
18153;DHT22;9202;51.578;7.734;2023-07-22T04:17:12;13.70;99.90
18153;DHT22;9202;51.578;7.734;2023-07-22T04:19:16;13.70;99.90
18153;DHT22;9202;51.578;7.734;2023-07-22T04:21:19;13.70;99.90
18153;DHT22;9202;51.578;7.734;2023-07-22T04:23:22;13.70;99.90
18153;DHT22;9202;51.578;7.734;2023-07-22T04:25:24;13.80;99.90
18153;DHT22;9202;51.578;7.734;2023-07-22T04:27:27;13.80;99.90
18153;DHT22;9202;51.578;7.734;2023-07-22T04:29:30;13.80;99.90
18153;DHT22;9202;51.578;7.734;2023-07-22T04:31:33;13.80;99.90
18153;DHT22;9202;51.578;7.734;2023-07-22T04:33:36;13.80;99.90
18153;DHT22;9202;51.578;7.734;2023-07-22T04:35:40;13.80;99.90
18153;DHT22;9202;51.578;7.734;2023-07-22T04:37:43;13.90;99.90
18153;DHT22;9202;51.578;7.734;2023-07-22T04:39:47;13.90;99.90
18153;DHT22;9202;51.578;7.734;2023-07-22T04:41:50;13.90;99.90
18153;DHT22;9202;51.578;7.734;2023-07-22T04:43:53;13.90;99.90
18153;DHT22;9202;51.578;7.734;2023-07-22T04:45:55;13.90;99.90
18153;DHT22;9202;51.578;7.734;2023-07-22T04:47:58;13.90;99.90
18153;DHT22;9202;51.578;7.734;2023-07-22T04:50:00;14.00;99.90
18153;DHT22;9202;51.578;7.734;2023-07-22T04:52:04;14.00;99.90
18153;DHT22;9202;51.578;7.734;2023-07-22T04:54:06;14.00;99.90
18153;DHT22;9202;51.578;7.734;2023-07-22T04:56:09;14.00;99.90
18153;DHT22;9202;51.578;7.734;2023-07-22T04:58:12;14.00;99.90
18153;DHT22;9202;51.578;7.734;2023-07-22T05:00:15;14.10;99.90
18153;DHT22;9202;51.578;7.734;2023-07-22T05:02:18;14.10;99.90
18153;DHT22;9202;51.578;7.734;2023-07-22T05:04:20;14.10;99.90
18153;DHT22;9202;51.578;7.734;2023-07-22T05:06:23;14.10;99.90
18153;DHT22;9202;51.578;7.734;2023-07-22T05:08:27;14.20;99.90
18153;DHT22;9202;51.578;7.734;2023-07-22T05:10:29;14.20;99.90
18153;DHT22;9202;51.578;7.734;2023-07-22T05:12:32;14.30;99.90
18153;DHT22;9202;51.578;7.734;2023-07-22T05:14:34;14.30;99.90
18153;DHT22;9202;51.578;7.734;2023-07-22T05:16:37;14.40;99.90
18153;DHT22;9202;51.578;7.734;2023-07-22T05:18:40;14.40;99.90
18153;DHT22;9202;51.578;7.734;2023-07-22T05:20:43;14.50;99.90
18153;DHT22;9202;51.578;7.734;2023-07-22T05:22:45;14.50;99.90
18153;DHT22;9202;51.578;7.734;2023-07-22T05:24:48;14.60;99.90
18153;DHT22;9202;51.578;7.734;2023-07-22T05:26:51;14.60;99.90
18153;DHT22;9202;51.578;7.734;2023-07-22T05:28:55;14.60;99.90
18153;DHT22;9202;51.578;7.734;2023-07-22T05:30:58;14.70;99.90
18153;DHT22;9202;51.578;7.734;2023-07-22T05:33:00;14.70;99.90
18153;DHT22;9202;51.578;7.734;2023-07-22T05:35:04;14.70;99.90
18153;DHT22;9202;51.578;7.734;2023-07-22T05:37:07;14.80;99.90
18153;DHT22;9202;51.578;7.734;2023-07-22T05:39:09;14.90;99.90
18153;DHT22;9202;51.578;7.734;2023-07-22T05:41:12;14.90;99.90
18153;DHT22;9202;51.578;7.734;2023-07-22T05:43:15;14.90;99.90
18153;DHT22;9202;51.578;7.734;2023-07-22T05:45:17;14.90;99.90
18153;DHT22;9202;51.578;7.734;2023-07-22T05:47:20;15.00;99.90
18153;DHT22;9202;51.578;7.734;2023-07-22T05:49:22;15.00;99.90
18153;DHT22;9202;51.578;7.734;2023-07-22T05:51:25;15.10;99.90
18153;DHT22;9202;51.578;7.734;2023-07-22T05:53:28;15.20;99.90
18153;DHT22;9202;51.578;7.734;2023-07-22T05:55:31;15.20;99.90
18153;DHT22;9202;51.578;7.734;2023-07-22T05:57:34;15.30;99.90
18153;DHT22;9202;51.578;7.734;2023-07-22T05:59:36;15.40;99.90
18153;DHT22;9202;51.578;7.734;2023-07-22T06:01:39;15.40;99.90
18153;DHT22;9202;51.578;7.734;2023-07-22T06:03:42;15.40;99.90
18153;DHT22;9202;51.578;7.734;2023-07-22T06:05:45;15.50;99.90
18153;DHT22;9202;51.578;7.734;2023-07-22T06:07:48;15.50;99.90
18153;DHT22;9202;51.578;7.734;2023-07-22T06:09:50;15.50;99.90
18153;DHT22;9202;51.578;7.734;2023-07-22T06:11:53;15.50;99.90
18153;DHT22;9202;51.578;7.734;2023-07-22T06:16:13;15.60;99.90
18153;DHT22;9202;51.578;7.734;2023-07-22T06:18:16;15.60;99.90
18153;DHT22;9202;51.578;7.734;2023-07-22T06:20:18;15.70;99.90
18153;DHT22;9202;51.578;7.734;2023-07-22T06:22:21;15.90;99.90
18153;DHT22;9202;51.578;7.734;2023-07-22T06:24:24;15.90;99.90
18153;DHT22;9202;51.578;7.734;2023-07-22T06:26:26;16.00;99.90
18153;DHT22;9202;51.578;7.734;2023-07-22T06:28:29;16.10;99.90
18153;DHT22;9202;51.578;7.734;2023-07-22T06:30:32;16.20;99.90
18153;DHT22;9202;51.578;7.734;2023-07-22T06:32:36;16.20;99.90
18153;DHT22;9202;51.578;7.734;2023-07-22T06:34:39;16.20;99.90
18153;DHT22;9202;51.578;7.734;2023-07-22T06:36:41;16.20;99.90
18153;DHT22;9202;51.578;7.734;2023-07-22T06:38:44;16.20;99.90
18153;DHT22;9202;51.578;7.734;2023-07-22T06:40:46;16.30;99.90
18153;DHT22;9202;51.578;7.734;2023-07-22T06:42:49;16.20;99.90
18153;DHT22;9202;51.578;7.734;2023-07-22T06:44:52;16.20;99.90
18153;DHT22;9202;51.578;7.734;2023-07-22T06:46:55;16.30;99.90
18153;DHT22;9202;51.578;7.734;2023-07-22T06:48:58;16.30;99.90
18153;DHT22;9202;51.578;7.734;2023-07-22T06:51:01;16.30;99.90
18153;DHT22;9202;51.578;7.734;2023-07-22T06:53:04;16.30;99.90
18153;DHT22;9202;51.578;7.734;2023-07-22T06:55:07;16.20;99.90
18153;DHT22;9202;51.578;7.734;2023-07-22T06:57:10;16.20;99.90
18153;DHT22;9202;51.578;7.734;2023-07-22T06:59:12;16.30;99.90
18153;DHT22;9202;51.578;7.734;2023-07-22T07:01:15;16.30;99.90
18153;DHT22;9202;51.578;7.734;2023-07-22T07:03:17;16.40;99.90
18153;DHT22;9202;51.578;7.734;2023-07-22T07:05:20;16.40;99.90
18153;DHT22;9202;51.578;7.734;2023-07-22T07:07:23;16.50;99.90
18153;DHT22;9202;51.578;7.734;2023-07-22T07:09:26;16.50;99.90
18153;DHT22;9202;51.578;7.734;2023-07-22T07:11:29;16.60;99.90
18153;DHT22;9202;51.578;7.734;2023-07-22T07:13:31;16.80;99.90
18153;DHT22;9202;51.578;7.734;2023-07-22T07:15:34;16.90;99.90
18153;DHT22;9202;51.578;7.734;2023-07-22T07:17:36;17.00;99.90
18153;DHT22;9202;51.578;7.734;2023-07-22T07:19:39;17.10;99.90
18153;DHT22;9202;51.578;7.734;2023-07-22T07:21:42;17.20;99.90
18153;DHT22;9202;51.578;7.734;2023-07-22T07:23:44;17.20;99.90
18153;DHT22;9202;51.578;7.734;2023-07-22T07:25:47;17.40;99.90
18153;DHT22;9202;51.578;7.734;2023-07-22T07:27:50;17.50;99.90
18153;DHT22;9202;51.578;7.734;2023-07-22T07:29:53;17.50;99.90
18153;DHT22;9202;51.578;7.734;2023-07-22T07:31:56;17.60;99.90
18153;DHT22;9202;51.578;7.734;2023-07-22T07:33:59;17.70;99.90
18153;DHT22;9202;51.578;7.734;2023-07-22T07:36:01;17.70;99.90
18153;DHT22;9202;51.578;7.734;2023-07-22T07:38:05;17.80;99.90
18153;DHT22;9202;51.578;7.734;2023-07-22T07:40:08;17.90;99.90
18153;DHT22;9202;51.578;7.734;2023-07-22T07:42:11;18.10;99.90
18153;DHT22;9202;51.578;7.734;2023-07-22T07:44:14;18.10;99.90
18153;DHT22;9202;51.578;7.734;2023-07-22T07:46:17;18.00;99.90
18153;DHT22;9202;51.578;7.734;2023-07-22T07:48:21;18.10;99.90
18153;DHT22;9202;51.578;7.734;2023-07-22T07:50:24;18.00;99.90
18153;DHT22;9202;51.578;7.734;2023-07-22T07:52:26;18.00;99.90
18153;DHT22;9202;51.578;7.734;2023-07-22T07:54:29;18.00;99.90
18153;DHT22;9202;51.578;7.734;2023-07-22T07:56:34;18.10;99.90
18153;DHT22;9202;51.578;7.734;2023-07-22T07:58:36;18.20;99.90
18153;DHT22;9202;51.578;7.734;2023-07-22T08:00:39;18.30;99.90
18153;DHT22;9202;51.578;7.734;2023-07-22T08:02:42;18.50;99.90
18153;DHT22;9202;51.578;7.734;2023-07-22T08:07:14;18.70;99.90
18153;DHT22;9202;51.578;7.734;2023-07-22T08:09:16;18.90;99.90
18153;DHT22;9202;51.578;7.734;2023-07-22T08:11:21;18.90;99.90
18153;DHT22;9202;51.578;7.734;2023-07-22T08:13:24;19.00;99.90
18153;DHT22;9202;51.578;7.734;2023-07-22T08:15:28;19.10;99.90
18153;DHT22;9202;51.578;7.734;2023-07-22T08:17:30;19.20;99.90
18153;DHT22;9202;51.578;7.734;2023-07-22T08:19:33;19.30;99.90
18153;DHT22;9202;51.578;7.734;2023-07-22T08:21:35;19.40;99.90
18153;DHT22;9202;51.578;7.734;2023-07-22T08:23:38;19.40;99.90
18153;DHT22;9202;51.578;7.734;2023-07-22T08:25:40;19.30;99.90
18153;DHT22;9202;51.578;7.734;2023-07-22T08:27:44;19.10;99.90
18153;DHT22;9202;51.578;7.734;2023-07-22T08:29:47;19.20;99.90
18153;DHT22;9202;51.578;7.734;2023-07-22T08:31:50;19.20;99.90
18153;DHT22;9202;51.578;7.734;2023-07-22T08:33:52;19.30;99.90
18153;DHT22;9202;51.578;7.734;2023-07-22T08:35:55;19.30;99.90
18153;DHT22;9202;51.578;7.734;2023-07-22T08:37:57;19.40;99.90
18153;DHT22;9202;51.578;7.734;2023-07-22T08:40:00;19.60;99.90
18153;DHT22;9202;51.578;7.734;2023-07-22T08:42:03;19.50;99.90
18153;DHT22;9202;51.578;7.734;2023-07-22T08:44:06;19.50;99.90
18153;DHT22;9202;51.578;7.734;2023-07-22T08:46:10;19.30;99.90
18153;DHT22;9202;51.578;7.734;2023-07-22T08:48:14;19.20;99.90
18153;DHT22;9202;51.578;7.734;2023-07-22T08:50:21;19.30;99.90
18153;DHT22;9202;51.578;7.734;2023-07-22T08:52:29;19.30;99.90
18153;DHT22;9202;51.578;7.734;2023-07-22T08:54:32;19.50;99.90
18153;DHT22;9202;51.578;7.734;2023-07-22T08:56:35;19.60;99.90
18153;DHT22;9202;51.578;7.734;2023-07-22T08:58:39;20.00;99.90
18153;DHT22;9202;51.578;7.734;2023-07-22T09:00:43;20.00;99.90
18153;DHT22;9202;51.578;7.734;2023-07-22T09:02:45;20.10;99.90
18153;DHT22;9202;51.578;7.734;2023-07-22T09:04:48;20.10;99.90
18153;DHT22;9202;51.578;7.734;2023-07-22T09:06:51;20.20;99.90
18153;DHT22;9202;51.578;7.734;2023-07-22T09:08:54;20.50;99.90
18153;DHT22;9202;51.578;7.734;2023-07-22T09:10:57;20.60;99.90
18153;DHT22;9202;51.578;7.734;2023-07-22T09:13:00;20.50;99.90
18153;DHT22;9202;51.578;7.734;2023-07-22T09:15:03;20.60;99.90
18153;DHT22;9202;51.578;7.734;2023-07-22T09:17:06;20.90;99.90
18153;DHT22;9202;51.578;7.734;2023-07-22T09:19:09;20.90;99.90
18153;DHT22;9202;51.578;7.734;2023-07-22T09:21:11;20.90;99.90
18153;DHT22;9202;51.578;7.734;2023-07-22T09:23:14;20.90;99.90
18153;DHT22;9202;51.578;7.734;2023-07-22T09:25:17;21.10;99.90
18153;DHT22;9202;51.578;7.734;2023-07-22T09:27:32;20.70;99.90
18153;DHT22;9202;51.578;7.734;2023-07-22T09:29:36;20.80;99.90
18153;DHT22;9202;51.578;7.734;2023-07-22T09:31:48;20.60;99.90
18153;DHT22;9202;51.578;7.734;2023-07-22T09:33:50;20.70;99.90
18153;DHT22;9202;51.578;7.734;2023-07-22T09:35:55;20.60;99.90
18153;DHT22;9202;51.578;7.734;2023-07-22T09:37:58;20.60;99.90
18153;DHT22;9202;51.578;7.734;2023-07-22T09:40:01;20.50;99.90
18153;DHT22;9202;51.578;7.734;2023-07-22T09:42:05;20.50;99.90
18153;DHT22;9202;51.578;7.734;2023-07-22T09:44:18;20.60;99.90
18153;DHT22;9202;51.578;7.734;2023-07-22T09:46:31;20.80;99.90
18153;DHT22;9202;51.578;7.734;2023-07-22T09:48:41;20.90;99.90
18153;DHT22;9202;51.578;7.734;2023-07-22T09:50:45;20.80;99.90
18153;DHT22;9202;51.578;7.734;2023-07-22T09:52:48;20.90;99.90
18153;DHT22;9202;51.578;7.734;2023-07-22T09:54:50;21.00;99.90
18153;DHT22;9202;51.578;7.734;2023-07-22T09:56:53;21.10;99.90
18153;DHT22;9202;51.578;7.734;2023-07-22T09:58:56;21.30;99.90
18153;DHT22;9202;51.578;7.734;2023-07-22T10:00:59;21.30;99.90
18153;DHT22;9202;51.578;7.734;2023-07-22T10:03:03;21.30;99.90
18153;DHT22;9202;51.578;7.734;2023-07-22T10:05:08;21.10;99.90
18153;DHT22;9202;51.578;7.734;2023-07-22T10:07:10;21.00;99.90
18153;DHT22;9202;51.578;7.734;2023-07-22T10:09:14;20.80;99.90
18153;DHT22;9202;51.578;7.734;2023-07-22T10:11:18;20.70;99.90
18153;DHT22;9202;51.578;7.734;2023-07-22T10:13:21;20.70;99.90
18153;DHT22;9202;51.578;7.734;2023-07-22T10:15:25;20.70;99.90
18153;DHT22;9202;51.578;7.734;2023-07-22T10:17:28;20.60;99.90
18153;DHT22;9202;51.578;7.734;2023-07-22T10:19:31;20.70;99.90
18153;DHT22;9202;51.578;7.734;2023-07-22T10:21:34;20.70;99.90
18153;DHT22;9202;51.578;7.734;2023-07-22T10:23:38;20.80;99.90
18153;DHT22;9202;51.578;7.734;2023-07-22T10:25:41;20.90;99.90
18153;DHT22;9202;51.578;7.734;2023-07-22T10:27:44;21.00;99.90
18153;DHT22;9202;51.578;7.734;2023-07-22T10:29:47;21.10;99.90
18153;DHT22;9202;51.578;7.734;2023-07-22T10:31:50;21.10;99.90
18153;DHT22;9202;51.578;7.734;2023-07-22T10:33:55;21.00;99.90
18153;DHT22;9202;51.578;7.734;2023-07-22T10:36:01;21.00;99.90
18153;DHT22;9202;51.578;7.734;2023-07-22T10:38:08;21.10;99.90
18153;DHT22;9202;51.578;7.734;2023-07-22T10:43:05;21.10;99.90
18153;DHT22;9202;51.578;7.734;2023-07-22T10:45:19;21.10;99.90
18153;DHT22;9202;51.578;7.734;2023-07-22T10:47:34;21.10;99.90
18153;DHT22;9202;51.578;7.734;2023-07-22T10:49:44;21.30;99.90
18153;DHT22;9202;51.578;7.734;2023-07-22T10:51:48;21.40;99.90
18153;DHT22;9202;51.578;7.734;2023-07-22T10:53:50;21.30;99.90
18153;DHT22;9202;51.578;7.734;2023-07-22T10:56:12;21.40;99.90
18153;DHT22;9202;51.578;7.734;2023-07-22T10:58:16;21.50;99.90
18153;DHT22;9202;51.578;7.734;2023-07-22T11:00:20;21.70;99.90
18153;DHT22;9202;51.578;7.734;2023-07-22T11:02:24;21.70;99.90
18153;DHT22;9202;51.578;7.734;2023-07-22T11:04:27;21.70;99.90
18153;DHT22;9202;51.578;7.734;2023-07-22T11:06:35;21.50;99.90
18153;DHT22;9202;51.578;7.734;2023-07-22T11:08:39;21.60;99.90
18153;DHT22;9202;51.578;7.734;2023-07-22T11:10:52;21.50;99.90
18153;DHT22;9202;51.578;7.734;2023-07-22T11:12:55;21.40;99.90
18153;DHT22;9202;51.578;7.734;2023-07-22T11:15:02;21.20;99.90
18153;DHT22;9202;51.578;7.734;2023-07-22T11:17:07;21.20;99.90
18153;DHT22;9202;51.578;7.734;2023-07-22T11:19:10;21.30;99.90
18153;DHT22;9202;51.578;7.734;2023-07-22T11:21:13;21.30;99.90
18153;DHT22;9202;51.578;7.734;2023-07-22T11:25:34;21.40;99.90
18153;DHT22;9202;51.578;7.734;2023-07-22T11:27:37;21.70;99.90
18153;DHT22;9202;51.578;7.734;2023-07-22T11:29:40;21.60;99.90
18153;DHT22;9202;51.578;7.734;2023-07-22T11:31:44;21.70;99.90
18153;DHT22;9202;51.578;7.734;2023-07-22T11:33:48;22.00;99.90
18153;DHT22;9202;51.578;7.734;2023-07-22T11:35:50;22.30;99.90
18153;DHT22;9202;51.578;7.734;2023-07-22T11:38:00;22.50;99.90
18153;DHT22;9202;51.578;7.734;2023-07-22T11:40:03;22.50;99.90
18153;DHT22;9202;51.578;7.734;2023-07-22T11:42:10;22.40;99.90
18153;DHT22;9202;51.578;7.734;2023-07-22T11:44:17;22.40;99.90
18153;DHT22;9202;51.578;7.734;2023-07-22T11:46:19;22.40;99.90
18153;DHT22;9202;51.578;7.734;2023-07-22T11:48:22;22.20;99.90
18153;DHT22;9202;51.578;7.734;2023-07-22T11:50:31;22.00;99.90
18153;DHT22;9202;51.578;7.734;2023-07-22T11:52:34;21.70;99.90
18153;DHT22;9202;51.578;7.734;2023-07-22T11:54:37;22.00;99.90
18153;DHT22;9202;51.578;7.734;2023-07-22T11:56:40;21.90;99.90
18153;DHT22;9202;51.578;7.734;2023-07-22T11:58:42;21.90;99.90
18153;DHT22;9202;51.578;7.734;2023-07-22T12:00:46;21.90;99.90
18153;DHT22;9202;51.578;7.734;2023-07-22T12:02:50;21.80;99.90
18153;DHT22;9202;51.578;7.734;2023-07-22T12:04:56;21.90;99.90
18153;DHT22;9202;51.578;7.734;2023-07-22T12:06:59;22.20;99.90
18153;DHT22;9202;51.578;7.734;2023-07-22T12:09:01;22.60;99.90
18153;DHT22;9202;51.578;7.734;2023-07-22T12:11:04;22.70;99.90
18153;DHT22;9202;51.578;7.734;2023-07-22T12:13:06;23.00;99.90
18153;DHT22;9202;51.578;7.734;2023-07-22T12:15:10;23.00;99.90
18153;DHT22;9202;51.578;7.734;2023-07-22T12:17:15;23.00;99.90
18153;DHT22;9202;51.578;7.734;2023-07-22T12:19:17;23.00;99.90
18153;DHT22;9202;51.578;7.734;2023-07-22T12:21:20;22.80;99.90
18153;DHT22;9202;51.578;7.734;2023-07-22T12:23:22;22.70;99.90
18153;DHT22;9202;51.578;7.734;2023-07-22T12:25:25;22.80;99.90
18153;DHT22;9202;51.578;7.734;2023-07-22T12:27:28;22.80;99.90
18153;DHT22;9202;51.578;7.734;2023-07-22T12:29:30;22.80;99.90
18153;DHT22;9202;51.578;7.734;2023-07-22T12:31:33;23.00;99.90
18153;DHT22;9202;51.578;7.734;2023-07-22T12:33:36;23.10;99.90
18153;DHT22;9202;51.578;7.734;2023-07-22T12:35:38;23.10;99.90
18153;DHT22;9202;51.578;7.734;2023-07-22T12:37:41;23.00;99.90
18153;DHT22;9202;51.578;7.734;2023-07-22T12:39:43;22.80;99.90
18153;DHT22;9202;51.578;7.734;2023-07-22T12:41:46;22.80;99.90
18153;DHT22;9202;51.578;7.734;2023-07-22T12:43:49;22.70;99.90
18153;DHT22;9202;51.578;7.734;2023-07-22T12:45:51;22.80;99.90
18153;DHT22;9202;51.578;7.734;2023-07-22T12:47:54;22.90;99.90
18153;DHT22;9202;51.578;7.734;2023-07-22T12:49:56;22.90;99.90
18153;DHT22;9202;51.578;7.734;2023-07-22T12:51:59;22.80;99.90
18153;DHT22;9202;51.578;7.734;2023-07-22T12:54:03;22.80;99.90
18153;DHT22;9202;51.578;7.734;2023-07-22T12:56:06;23.00;99.90
18153;DHT22;9202;51.578;7.734;2023-07-22T12:58:09;23.00;99.90
18153;DHT22;9202;51.578;7.734;2023-07-22T13:00:12;23.00;99.90
18153;DHT22;9202;51.578;7.734;2023-07-22T13:02:15;23.00;99.90
18153;DHT22;9202;51.578;7.734;2023-07-22T13:04:18;22.80;99.90
18153;DHT22;9202;51.578;7.734;2023-07-22T13:06:21;22.90;99.90
18153;DHT22;9202;51.578;7.734;2023-07-22T13:08:23;23.00;99.90
18153;DHT22;9202;51.578;7.734;2023-07-22T13:10:26;23.10;99.90
18153;DHT22;9202;51.578;7.734;2023-07-22T13:12:30;23.10;99.90
18153;DHT22;9202;51.578;7.734;2023-07-22T13:14:33;23.20;99.90
18153;DHT22;9202;51.578;7.734;2023-07-22T13:16:36;23.30;99.90
18153;DHT22;9202;51.578;7.734;2023-07-22T13:18:38;23.30;99.90
18153;DHT22;9202;51.578;7.734;2023-07-22T13:20:41;23.50;99.90
18153;DHT22;9202;51.578;7.734;2023-07-22T13:22:45;23.50;99.90
18153;DHT22;9202;51.578;7.734;2023-07-22T13:24:47;23.30;99.00
18153;DHT22;9202;51.578;7.734;2023-07-22T13:26:50;23.40;99.90